Benet Lake, Wisconsin
Current Conditions -  °F | °C
As of 4:53 PM on Friday 31 Oct 2014 (Local Time) from KENW Reporting Station
Overcast Overcast  
Wind Chill: 27°   Ceiling: 5000
Heat Index: 38°   Visibility: 10mi
Dew Point: 20°   Wind: 22mph
Humidity: 48%   Direction: 350°N
Pressure: 30.29"   Gusts: 37mph
Location:  42.54°N, 88.02°W
Report Text: KENW 312153Z 35019G32KT 10SM OVC050 03/M07 A3029 RMK AO2 PK WND 36033/2055 SLP264 T00331067
Loading
Personal Weather Stations






























Interactive Weather Map
Tropical Storm Tracking
New forecast layout! Learn more

10-Day Weather Forecast

Advertisements
Track Severe Weather on mobile